sensor_id;sensor_type;location;lat;lon;timestamp;pressure;altitude;pressure_sealevel;temperature;humidity
56074;BME280;41950;55.840;37.442;2023-05-14T00:00:21;100272.53;;;12.78;51.14
56074;BME280;41950;55.840;37.442;2023-05-14T00:02:46;100265.66;;;12.74;51.27
56074;BME280;41950;55.840;37.442;2023-05-14T00:05:12;100270.16;;;12.65;51.29
56074;BME280;41950;55.840;37.442;2023-05-14T00:07:38;100279.69;;;12.66;51.36
56074;BME280;41950;55.840;37.442;2023-05-14T00:10:04;100265.94;;;12.55;51.99
56074;BME280;41950;55.840;37.442;2023-05-14T00:12:31;100253.19;;;12.40;52.19
56074;BME280;41950;55.840;37.442;2023-05-14T00:14:56;100253.19;;;12.40;51.94
56074;BME280;41950;55.840;37.442;2023-05-14T00:17:23;100248.91;;;12.36;52.22
56074;BME280;41950;55.840;37.442;2023-05-14T00:19:49;100238.66;;;12.25;52.20
56074;BME280;41950;55.840;37.442;2023-05-14T00:22:15;100276.53;;;12.46;52.44
56074;BME280;41950;55.840;37.442;2023-05-14T00:24:42;100259.34;;;12.34;52.44
56074;BME280;41950;55.840;37.442;2023-05-14T00:27:08;100272.31;;;12.37;52.52
56074;BME280;41950;55.840;37.442;2023-05-14T00:29:36;100252.63;;;12.20;52.86
56074;BME280;41950;55.840;37.442;2023-05-14T00:32:02;100256.97;;;12.19;52.95
56074;BME280;41950;55.840;37.442;2023-05-14T00:34:28;100287.19;;;12.28;53.33
56074;BME280;41950;55.840;37.442;2023-05-14T00:36:53;100254.53;;;12.09;53.11
56074;BME280;41950;55.840;37.442;2023-05-14T00:39:19;100261.47;;;12.08;53.25
56074;BME280;41950;55.840;37.442;2023-05-14T00:41:45;100244.34;;;11.92;53.57
56074;BME280;41950;55.840;37.442;2023-05-14T00:44:11;100188.53;;;11.53;54.16
56074;BME280;41950;55.840;37.442;2023-05-14T00:46:36;100239.31;;;11.81;54.19
56074;BME280;41950;55.840;37.442;2023-05-14T00:49:02;100284.06;;;12.04;54.31
56074;BME280;41950;55.840;37.442;2023-05-14T00:51:29;100254.91;;;11.81;54.62
56074;BME280;41950;55.840;37.442;2023-05-14T00:53:55;100272.09;;;11.91;54.64
56074;BME280;41950;55.840;37.442;2023-05-14T00:56:22;100273.06;;;11.86;54.62
56074;BME280;41950;55.840;37.442;2023-05-14T00:58:49;100267.06;;;11.76;54.85
56074;BME280;41950;55.840;37.442;2023-05-14T01:01:15;100277.44;;;11.77;55.13
56074;BME280;41950;55.840;37.442;2023-05-14T01:03:41;100257.66;;;11.66;55.00
56074;BME280;41950;55.840;37.442;2023-05-14T01:14:25;100287.97;;;11.68;55.53
56074;BME280;41950;55.840;37.442;2023-05-14T01:16:57;100287.19;;;11.62;55.72
56074;BME280;41950;55.840;37.442;2023-05-14T01:19:43;100285.53;;;11.55;55.90
56074;BME280;41950;55.840;37.442;2023-05-14T01:22:10;100301.09;;;11.58;56.17
56074;BME280;41950;55.840;37.442;2023-05-14T01:24:36;100297.69;;;11.50;56.27
56074;BME280;41950;55.840;37.442;2023-05-14T01:27:17;100294.28;;;11.46;56.39
56074;BME280;41950;55.840;37.442;2023-05-14T01:32:50;100306.41;;;11.45;56.84
56074;BME280;41950;55.840;37.442;2023-05-14T01:35:20;100271.16;;;11.22;56.81
56074;BME280;41950;55.840;37.442;2023-05-14T01:37:47;100273.75;;;11.22;57.08
56074;BME280;41950;55.840;37.442;2023-05-14T01:40:14;100303.88;;;11.39;57.28
56074;BME280;41950;55.840;37.442;2023-05-14T01:42:41;100300.56;;;11.28;57.03
56074;BME280;41950;55.840;37.442;2023-05-14T01:45:08;100300.59;;;11.21;57.06
56074;BME280;41950;55.840;37.442;2023-05-14T01:47:34;100316.13;;;11.31;57.17
56074;BME280;41950;55.840;37.442;2023-05-14T01:50:00;100317.00;;;11.30;57.70
56074;BME280;41950;55.840;37.442;2023-05-14T01:52:25;100304.06;;;11.21;57.54
56074;BME280;41950;55.840;37.442;2023-05-14T01:54:53;100255.00;;;10.92;57.65
56074;BME280;41950;55.840;37.442;2023-05-14T01:57:18;100300.69;;;11.14;57.65
56074;BME280;41950;55.840;37.442;2023-05-14T01:59:44;100316.19;;;11.22;57.90
56074;BME280;41950;55.840;37.442;2023-05-14T02:02:10;100268.81;;;10.99;57.91
56074;BME280;41950;55.840;37.442;2023-05-14T02:04:35;100311.91;;;11.18;57.89
56074;BME280;41950;55.840;37.442;2023-05-14T02:07:01;100303.28;;;11.13;57.87
56074;BME280;41950;55.840;37.442;2023-05-14T02:09:26;100326.56;;;11.22;57.79
56074;BME280;41950;55.840;37.442;2023-05-14T02:11:52;100325.72;;;11.20;57.87
56074;BME280;41950;55.840;37.442;2023-05-14T02:14:18;100310.25;;;11.09;58.19
56074;BME280;41950;55.840;37.442;2023-05-14T02:16:44;100335.22;;;11.23;58.18
56074;BME280;41950;55.840;37.442;2023-05-14T02:19:11;100333.53;;;11.20;58.14
56074;BME280;41950;55.840;37.442;2023-05-14T02:21:58;100331.81;;;11.19;58.45
56074;BME280;41950;55.840;37.442;2023-05-14T02:24:24;100304.31;;;10.95;58.43
56074;BME280;41950;55.840;37.442;2023-05-14T02:26:51;100337.97;;;11.10;58.53
56074;BME280;41950;55.840;37.442;2023-05-14T02:29:18;100326.81;;;10.99;58.57
56074;BME280;41950;55.840;37.442;2023-05-14T02:31:44;100334.47;;;11.11;58.93
56074;BME280;41950;55.840;37.442;2023-05-14T02:34:10;100321.63;;;10.95;58.98
56074;BME280;41950;55.840;37.442;2023-05-14T02:36:36;100340.59;;;11.06;59.28
56074;BME280;41950;55.840;37.442;2023-05-14T02:39:01;100350.97;;;11.09;59.33
56074;BME280;41950;55.840;37.442;2023-05-14T02:41:28;100351.00;;;11.06;59.54
56074;BME280;41950;55.840;37.442;2023-05-14T02:43:54;100333.78;;;10.96;59.40
56074;BME280;41950;55.840;37.442;2023-05-14T02:46:20;100328.59;;;10.90;59.22
56074;BME280;41950;55.840;37.442;2023-05-14T02:48:46;100356.13;;;11.10;59.47
56074;BME280;41950;55.840;37.442;2023-05-14T02:51:11;100355.22;;;11.14;59.05
56074;BME280;41950;55.840;37.442;2023-05-14T02:53:39;100354.38;;;11.12;59.31
56074;BME280;41950;55.840;37.442;2023-05-14T02:56:05;100343.97;;;11.14;59.42
56074;BME280;41950;55.840;37.442;2023-05-14T02:58:30;100354.28;;;11.22;59.22
56074;BME280;41950;55.840;37.442;2023-05-14T03:00:57;100356.91;;;11.25;59.35
56074;BME280;41950;55.840;37.442;2023-05-14T03:03:23;100332.72;;;11.13;59.13
56074;BME280;41950;55.840;37.442;2023-05-14T03:05:50;100346.50;;;11.26;59.17
56074;BME280;41950;55.840;37.442;2023-05-14T03:08:16;100343.88;;;11.28;58.73
56074;BME280;41950;55.840;37.442;2023-05-14T03:10:42;100331.75;;;11.28;58.54
56074;BME280;41950;55.840;37.442;2023-05-14T03:13:08;100279.22;;;10.97;58.47
56074;BME280;41950;55.840;37.442;2023-05-14T03:15:34;100333.50;;;11.26;58.59
56074;BME280;41950;55.840;37.442;2023-05-14T03:18:00;100366.22;;;11.44;58.66
56074;BME280;41950;55.840;37.442;2023-05-14T03:20:25;100363.66;;;11.41;58.52
56074;BME280;41950;55.840;37.442;2023-05-14T03:22:51;100369.63;;;11.51;58.30
56074;BME280;41950;55.840;37.442;2023-05-14T03:25:17;100368.75;;;11.49;58.29
56074;BME280;41950;55.840;37.442;2023-05-14T03:27:43;100380.00;;;11.54;58.47
56074;BME280;41950;55.840;37.442;2023-05-14T03:30:09;100364.44;;;11.52;58.45
56074;BME280;41950;55.840;37.442;2023-05-14T03:32:36;100359.25;;;11.51;58.13
56074;BME280;41950;55.840;37.442;2023-05-14T03:35:02;100365.16;;;11.63;58.21
56074;BME280;41950;55.840;37.442;2023-05-14T03:37:31;100352.22;;;11.59;58.08
56074;BME280;41950;55.840;37.442;2023-05-14T03:39:56;100374.56;;;11.75;57.62
56074;BME280;41950;55.840;37.442;2023-05-14T03:42:22;100384.09;;;11.79;57.64
56074;BME280;41950;55.840;37.442;2023-05-14T03:44:48;100332.25;;;11.61;57.59
56074;BME280;41950;55.840;37.442;2023-05-14T03:47:14;100376.22;;;11.85;57.46
56074;BME280;41950;55.840;37.442;2023-05-14T03:49:40;100371.00;;;11.87;57.60
56074;BME280;41950;55.840;37.442;2023-05-14T03:52:06;100389.03;;;12.00;57.54
56074;BME280;41950;55.840;37.442;2023-05-14T03:54:31;100389.06;;;11.99;56.80
56074;BME280;41950;55.840;37.442;2023-05-14T03:56:57;100358.09;;;11.73;56.82
56074;BME280;41950;55.840;37.442;2023-05-14T03:59:23;100386.66;;;11.82;57.22
56074;BME280;41950;55.840;37.442;2023-05-14T04:01:50;100385.75;;;11.86;57.11
56074;BME280;41950;55.840;37.442;2023-05-14T04:04:16;100357.19;;;11.77;57.24
56074;BME280;41950;55.840;37.442;2023-05-14T04:06:43;100375.19;;;11.98;57.01
56074;BME280;41950;55.840;37.442;2023-05-14T04:09:09;100372.56;;;12.01;56.67
56074;BME280;41950;55.840;37.442;2023-05-14T04:11:35;100364.69;;;12.07;56.53
56074;BME280;41950;55.840;37.442;2023-05-14T04:14:02;100350.81;;;12.07;56.49
56074;BME280;41950;55.840;37.442;2023-05-14T04:16:27;100382.69;;;12.23;56.18
56074;BME280;41950;55.840;37.442;2023-05-14T04:18:53;100361.97;;;12.17;56.29
56074;BME280;41950;55.840;37.442;2023-05-14T04:21:19;100387.75;;;12.35;55.94
56074;BME280;41950;55.840;37.442;2023-05-14T04:23:44;100386.81;;;12.41;55.86
56074;BME280;41950;55.840;37.442;2023-05-14T04:26:10;100391.97;;;12.44;55.66
56074;BME280;41950;55.840;37.442;2023-05-14T04:28:36;100385.00;;;12.46;55.55
56074;BME280;41950;55.840;37.442;2023-05-14T04:31:02;100390.19;;;12.47;55.27
56074;BME280;41950;55.840;37.442;2023-05-14T04:33:29;100366.09;;;12.33;55.07
56074;BME280;41950;55.840;37.442;2023-05-14T04:35:55;100393.53;;;12.55;55.24
56074;BME280;41950;55.840;37.442;2023-05-14T04:38:21;100389.25;;;12.51;54.94
56074;BME280;41950;55.840;37.442;2023-05-14T04:40:47;100372.03;;;12.43;54.50
56074;BME280;41950;55.840;37.442;2023-05-14T04:43:13;100398.63;;;12.64;54.53
56074;BME280;41950;55.840;37.442;2023-05-14T04:45:39;100392.47;;;12.70;54.53
56074;BME280;41950;55.840;37.442;2023-05-14T04:48:06;100342.56;;;12.41;53.85
56074;BME280;41950;55.840;37.442;2023-05-14T04:50:33;100401.06;;;12.75;53.88
56074;BME280;41950;55.840;37.442;2023-05-14T04:52:59;100391.63;;;12.69;53.58
56074;BME280;41950;55.840;37.442;2023-05-14T04:55:25;100376.06;;;12.65;53.40
56074;BME280;41950;55.840;37.442;2023-05-14T04:57:51;100373.34;;;12.71;53.51
56074;BME280;41950;55.840;37.442;2023-05-14T05:00:20;100393.00;;;12.93;53.48
56074;BME280;41950;55.840;37.442;2023-05-14T05:02:46;100401.50;;;13.05;52.69
56074;BME280;41950;55.840;37.442;2023-05-14T05:05:12;100398.00;;;13.06;52.85
56074;BME280;41950;55.840;37.442;2023-05-14T05:07:38;100379.84;;;13.01;52.64
56074;BME280;41950;55.840;37.442;2023-05-14T05:10:04;100391.81;;;13.11;52.86
56074;BME280;41950;55.840;37.442;2023-05-14T05:12:32;100376.16;;;13.13;52.69
56074;BME280;41950;55.840;37.442;2023-05-14T05:14:59;100402.91;;;13.27;52.37
56074;BME280;41950;55.840;37.442;2023-05-14T05:17:25;100388.22;;;13.21;52.25
56074;BME280;41950;55.840;37.442;2023-05-14T05:19:51;100382.97;;;13.24;51.87
56074;BME280;41950;55.840;37.442;2023-05-14T05:22:18;100363.97;;;13.13;52.04
56074;BME280;41950;55.840;37.442;2023-05-14T05:24:44;100369.88;;;13.27;52.00
56074;BME280;41950;55.840;37.442;2023-05-14T05:27:10;100381.75;;;13.44;51.38
56074;BME280;41950;55.840;37.442;2023-05-14T05:29:36;100390.16;;;13.59;51.23
56074;BME280;41950;55.840;37.442;2023-05-14T05:32:01;100388.22;;;13.69;50.99
56074;BME280;41950;55.840;37.442;2023-05-14T05:34:27;100382.09;;;13.73;51.13
56074;BME280;41950;55.840;37.442;2023-05-14T05:36:54;100382.69;;;13.86;50.41
56074;BME280;41950;55.840;37.442;2023-05-14T05:39:20;100364.59;;;13.78;49.64
56074;BME280;41950;55.840;37.442;2023-05-14T05:41:46;100367.03;;;13.86;49.35
56074;BME280;41950;55.840;37.442;2023-05-14T05:44:11;100307.69;;;13.54;49.17
56074;BME280;41950;55.840;37.442;2023-05-14T05:46:37;100357.31;;;13.94;49.38
56074;BME280;41950;55.840;37.442;2023-05-14T05:49:04;100387.25;;;14.19;48.81
56074;BME280;41950;55.840;37.442;2023-05-14T05:51:31;100358.56;;;14.18;49.16
56074;BME280;41950;55.840;37.442;2023-05-14T05:53:57;100372.16;;;14.34;48.91
56074;BME280;41950;55.840;37.442;2023-05-14T05:56:24;100373.00;;;14.34;48.42
56074;BME280;41950;55.840;37.442;2023-05-14T05:58:51;100374.59;;;14.43;47.74
56074;BME280;41950;55.840;37.442;2023-05-14T06:01:16;100344.69;;;14.16;48.14
56074;BME280;41950;55.840;37.442;2023-05-14T06:03:42;100346.25;;;14.23;48.08
56074;BME280;41950;55.840;37.442;2023-05-14T06:06:08;100352.16;;;14.33;48.65
56074;BME280;41950;55.840;37.442;2023-05-14T06:08:34;100349.47;;;14.36;48.17
56074;BME280;41950;55.840;37.442;2023-05-14T06:11:01;100350.19;;;14.44;48.59
56074;BME280;41950;55.840;37.442;2023-05-14T06:13:28;100323.25;;;14.40;48.19
56074;BME280;41950;55.840;37.442;2023-05-14T06:15:54;100347.22;;;14.61;47.95
56074;BME280;41950;55.840;37.442;2023-05-14T06:18:19;100365.81;;;14.84;48.31
56074;BME280;41950;55.840;37.442;2023-05-14T06:20:45;100349.75;;;14.64;48.27
56074;BME280;41950;55.840;37.442;2023-05-14T06:23:11;100367.75;;;14.76;46.85
56074;BME280;41950;55.840;37.442;2023-05-14T06:25:37;100360.69;;;14.81;47.22
56074;BME280;41950;55.840;37.442;2023-05-14T06:28:04;100356.25;;;14.83;46.27
56074;BME280;41950;55.840;37.442;2023-05-14T06:30:30;100345.50;;;14.95;45.87
56074;BME280;41950;55.840;37.442;2023-05-14T06:32:55;100346.81;;;15.13;45.84
56074;BME280;41950;55.840;37.442;2023-05-14T06:35:22;100362.13;;;15.27;44.35
56074;BME280;41950;55.840;37.442;2023-05-14T06:37:48;100344.56;;;15.32;44.00
56074;BME280;41950;55.840;37.442;2023-05-14T06:40:13;100296.13;;;15.19;43.18
56074;BME280;41950;55.840;37.442;2023-05-14T06:42:40;100356.75;;;15.67;41.96
56074;BME280;41950;55.840;37.442;2023-05-14T06:45:06;100348.69;;;15.74;40.71
56074;BME280;41950;55.840;37.442;2023-05-14T06:47:32;100361.59;;;15.81;41.42
56074;BME280;41950;55.840;37.442;2023-05-14T06:49:58;100368.34;;;15.89;41.14
56074;BME280;41950;55.840;37.442;2023-05-14T06:52:26;100358.13;;;15.80;41.13
56074;BME280;41950;55.840;37.442;2023-05-14T06:54:51;100371.88;;;15.87;41.48
56074;BME280;41950;55.840;37.442;2023-05-14T06:57:17;100373.59;;;15.88;40.80
56074;BME280;41950;55.840;37.442;2023-05-14T06:59:45;100370.94;;;15.91;40.84
56074;BME280;41950;55.840;37.442;2023-05-14T07:02:11;100369.84;;;15.98;40.86
56074;BME280;41950;55.840;37.442;2023-05-14T07:04:36;100360.09;;;16.03;40.72
56074;BME280;41950;55.840;37.442;2023-05-14T07:07:02;100364.53;;;16.30;40.69
56074;BME280;41950;55.840;37.442;2023-05-14T07:09:28;100374.44;;;16.78;39.88
56074;BME280;41950;55.840;37.442;2023-05-14T07:11:54;100374.03;;;16.90;39.89
56074;BME280;41950;55.840;37.442;2023-05-14T07:14:20;100375.66;;;16.94;39.66
56074;BME280;41950;55.840;37.442;2023-05-14T07:16:45;100378.59;;;17.12;39.46
56074;BME280;41950;55.840;37.442;2023-05-14T07:19:11;100366.81;;;17.23;38.81
56074;BME280;41950;55.840;37.442;2023-05-14T07:21:38;100380.63;;;17.30;38.46
56074;BME280;41950;55.840;37.442;2023-05-14T07:24:06;100352.75;;;17.01;38.89
56074;BME280;41950;55.840;37.442;2023-05-14T07:26:32;100367.09;;;16.89;38.57
56074;BME280;41950;55.840;37.442;2023-05-14T07:28:58;100395.06;;;16.89;38.48
56074;BME280;41950;55.840;37.442;2023-05-14T07:31:24;100379.66;;;16.50;39.19
56074;BME280;41950;55.840;37.442;2023-05-14T07:33:50;100401.38;;;16.54;39.60
56074;BME280;41950;55.840;37.442;2023-05-14T07:36:16;100378.69;;;16.53;39.63
56074;BME280;41950;55.840;37.442;2023-05-14T07:38:41;100355.72;;;16.33;39.93
56074;BME280;41950;55.840;37.442;2023-05-14T07:41:07;100395.03;;;16.61;39.69
56074;BME280;41950;55.840;37.442;2023-05-14T07:43:33;100387.03;;;16.65;39.67
56074;BME280;41950;55.840;37.442;2023-05-14T07:45:58;100359.00;;;16.69;39.69
56074;BME280;41950;55.840;37.442;2023-05-14T07:48:24;100388.53;;;17.02;38.44
56074;BME280;41950;55.840;37.442;2023-05-14T07:50:50;100402.91;;;17.17;39.37
56074;BME280;41950;55.840;37.442;2023-05-14T07:53:16;100386.78;;;17.29;38.80
56074;BME280;41950;55.840;37.442;2023-05-14T07:55:43;100398.97;;;17.56;38.67
56074;BME280;41950;55.840;37.442;2023-05-14T07:58:09;100362.84;;;17.38;38.41
56074;BME280;41950;55.840;37.442;2023-05-14T08:00:35;100379.50;;;17.37;37.35
56074;BME280;41950;55.840;37.442;2023-05-14T08:03:00;100405.31;;;17.49;37.43
56074;BME280;41950;55.840;37.442;2023-05-14T08:05:26;100380.69;;;17.53;37.87
56074;BME280;41950;55.840;37.442;2023-05-14T08:07:52;100371.41;;;17.70;36.24
56074;BME280;41950;55.840;37.442;2023-05-14T08:10:17;100396.66;;;17.97;36.47
56074;BME280;41950;55.840;37.442;2023-05-14T08:12:43;100393.00;;;18.01;35.90
56074;BME280;41950;55.840;37.442;2023-05-14T08:15:09;100363.22;;;17.77;36.46
56074;BME280;41950;55.840;37.442;2023-05-14T08:17:34;100390.25;;;17.81;36.78
56074;BME280;41950;55.840;37.442;2023-05-14T08:20:00;100397.59;;;17.45;37.63
56074;BME280;41950;55.840;37.442;2023-05-14T08:22:29;100412.50;;;17.18;39.15
56074;BME280;41950;55.840;37.442;2023-05-14T08:24:55;100415.53;;;17.06;39.74
56074;BME280;41950;55.840;37.442;2023-05-14T08:27:20;100414.78;;;17.02;39.64
56074;BME280;41950;55.840;37.442;2023-05-14T08:29:47;100361.03;;;16.59;41.05
56074;BME280;41950;55.840;37.442;2023-05-14T08:32:14;100341.66;;;16.63;40.77
56074;BME280;41950;55.840;37.442;2023-05-14T08:34:40;100378.38;;;16.91;39.89
56074;BME280;41950;55.840;37.442;2023-05-14T08:37:08;100348.88;;;16.85;40.69
56074;BME280;41950;55.840;37.442;2023-05-14T08:39:34;100410.34;;;17.30;40.09
56074;BME280;41950;55.840;37.442;2023-05-14T08:42:01;100414.19;;;17.45;40.36
56074;BME280;41950;55.840;37.442;2023-05-14T08:44:35;100404.91;;;17.61;40.41
56074;BME280;41950;55.840;37.442;2023-05-14T08:47:03;100286.81;;;16.85;39.98
56074;BME280;41950;55.840;37.442;2023-05-14T08:49:45;100414.94;;;17.75;40.03
56074;BME280;41950;55.840;37.442;2023-05-14T08:52:11;100378.25;;;17.74;39.15
56074;BME280;41950;55.840;37.442;2023-05-14T08:54:39;100401.00;;;17.98;38.71
56074;BME280;41950;55.840;37.442;2023-05-14T08:57:08;100372.38;;;17.66;37.78
56074;BME280;41950;55.840;37.442;2023-05-14T08:59:35;100387.84;;;17.75;37.32
56074;BME280;41950;55.840;37.442;2023-05-14T09:02:02;100405.31;;;17.76;37.68
56074;BME280;41950;55.840;37.442;2023-05-14T09:04:31;100379.09;;;17.74;38.03
56074;BME280;41950;55.840;37.442;2023-05-14T09:06:59;100366.19;;;18.16;37.36
56074;BME280;41950;55.840;37.442;2023-05-14T09:09:26;100376.56;;;18.66;37.13
56074;BME280;41950;55.840;37.442;2023-05-14T09:11:53;100399.28;;;19.11;36.58
56074;BME280;41950;55.840;37.442;2023-05-14T09:14:19;100406.06;;;18.96;36.01
56074;BME280;41950;55.840;37.442;2023-05-14T09:16:49;100401.38;;;18.81;35.23
56074;BME280;41950;55.840;37.442;2023-05-14T09:19:15;100403.28;;;18.54;35.53
56074;BME280;41950;55.840;37.442;2023-05-14T09:21:44;100397.34;;;18.49;36.23
56074;BME280;41950;55.840;37.442;2023-05-14T09:24:25;100403.72;;;18.67;36.92
56074;BME280;41950;55.840;37.442;2023-05-14T09:26:52;100336.31;;;18.19;36.80
56074;BME280;41950;55.840;37.442;2023-05-14T09:29:18;100396.13;;;18.36;35.95
56074;BME280;41950;55.840;37.442;2023-05-14T09:31:44;100388.63;;;18.25;36.74
56074;BME280;41950;55.840;37.442;2023-05-14T09:34:10;100399.25;;;18.22;35.98
56074;BME280;41950;55.840;37.442;2023-05-14T09:36:36;100395.78;;;18.21;36.63
56074;BME280;41950;55.840;37.442;2023-05-14T09:39:03;100385.66;;;18.11;35.54
56074;BME280;41950;55.840;37.442;2023-05-14T09:41:29;100365.72;;;18.29;35.76
56074;BME280;41950;55.840;37.442;2023-05-14T09:43:54;100373.09;;;18.66;35.82
56074;BME280;41950;55.840;37.442;2023-05-14T09:46:22;100397.22;;;18.75;34.73
56074;BME280;41950;55.840;37.442;2023-05-14T09:48:49;100390.34;;;18.95;35.68
56074;BME280;41950;55.840;37.442;2023-05-14T09:51:15;100383.25;;;19.17;34.41
56074;BME280;41950;55.840;37.442;2023-05-14T09:53:45;100368.38;;;18.96;34.19
56074;BME280;41950;55.840;37.442;2023-05-14T09:56:11;100362.97;;;18.77;35.17
56074;BME280;41950;55.840;37.442;2023-05-14T09:58:37;100369.81;;;18.81;35.28
56074;BME280;41950;55.840;37.442;2023-05-14T10:01:04;100336.50;;;18.81;35.73
56074;BME280;41950;55.840;37.442;2023-05-14T10:03:30;100361.66;;;19.09;34.83
56074;BME280;41950;55.840;37.442;2023-05-14T10:06:03;100380.19;;;19.28;34.19
56074;BME280;41950;55.840;37.442;2023-05-14T10:08:34;100350.34;;;19.07;33.89
56074;BME280;41950;55.840;37.442;2023-05-14T10:11:05;100382.47;;;19.15;33.55
56074;BME280;41950;55.840;37.442;2023-05-14T10:13:38;100371.78;;;18.98;33.20
56074;BME280;41950;55.840;37.442;2023-05-14T10:18:46;100381.75;;;19.54;33.94
56074;BME280;41950;55.840;37.442;2023-05-14T10:21:15;100380.94;;;19.52;33.98
56074;BME280;41950;55.840;37.442;2023-05-14T10:23:41;100368.19;;;19.63;33.25
56074;BME280;41950;55.840;37.442;2023-05-14T10:26:08;100373.56;;;20.38;31.43
56074;BME280;41950;55.840;37.442;2023-05-14T10:28:35;100373.25;;;20.25;31.76
56074;BME280;41950;55.840;37.442;2023-05-14T10:31:01;100353.63;;;19.74;32.92
56074;BME280;41950;55.840;37.442;2023-05-14T10:33:26;100351.88;;;19.55;33.27
56074;BME280;41950;55.840;37.442;2023-05-14T10:36:03;100377.78;;;19.64;32.67
56074;BME280;41950;55.840;37.442;2023-05-14T10:38:36;100383.19;;;19.61;33.40
56074;BME280;41950;55.840;37.442;2023-05-14T10:43:30;100366.16;;;20.09;34.30
56074;BME280;41950;55.840;37.442;2023-05-14T10:45:57;100371.34;;;20.10;33.08
56074;BME280;41950;55.840;37.442;2023-05-14T10:48:24;100334.59;;;20.07;33.85
56074;BME280;41950;55.840;37.442;2023-05-14T10:50:50;100368.66;;;20.49;33.49
56074;BME280;41950;55.840;37.442;2023-05-14T10:53:17;100363.84;;;20.40;32.41
56074;BME280;41950;55.840;37.442;2023-05-14T10:55:44;100353.97;;;20.06;33.13
56074;BME280;41950;55.840;37.442;2023-05-14T10:58:10;100354.22;;;19.81;33.95
56074;BME280;41950;55.840;37.442;2023-05-14T11:00:37;100373.81;;;19.94;34.49
56074;BME280;41950;55.840;37.442;2023-05-14T11:03:04;100312.88;;;19.63;33.42
56074;BME280;41950;55.840;37.442;2023-05-14T11:05:31;100373.16;;;19.89;33.44
56074;BME280;41950;55.840;37.442;2023-05-14T11:07:57;100358.56;;;19.82;33.55
56074;BME280;41950;55.840;37.442;2023-05-14T11:10:24;100356.72;;;19.84;32.92
56074;BME280;41950;55.840;37.442;2023-05-14T11:12:56;100363.19;;;19.96;32.52
56074;BME280;41950;55.840;37.442;2023-05-14T11:15:24;100348.22;;;19.78;32.79
56074;BME280;41950;55.840;37.442;2023-05-14T11:17:52;100334.16;;;20.35;31.97
56074;BME280;41950;55.840;37.442;2023-05-14T11:20:18;100324.53;;;20.53;31.20
56074;BME280;41950;55.840;37.442;2023-05-14T11:22:45;100362.53;;;20.30;30.73
56074;BME280;41950;55.840;37.442;2023-05-14T11:25:13;100331.78;;;19.72;32.17
56074;BME280;41950;55.840;37.442;2023-05-14T11:27:42;100356.78;;;19.62;32.98
56074;BME280;41950;55.840;37.442;2023-05-14T11:30:18;100347.75;;;19.68;32.68
56074;BME280;41950;55.840;37.442;2023-05-14T11:32:46;100345.19;;;19.46;32.35
56074;BME280;41950;55.840;37.442;2023-05-14T11:35:12;100354.47;;;19.34;33.03
56074;BME280;41950;55.840;37.442;2023-05-14T11:37:38;100314.19;;;19.12;34.35
56074;BME280;41950;55.840;37.442;2023-05-14T11:40:13;100359.28;;;19.65;34.33
56074;BME280;41950;55.840;37.442;2023-05-14T11:42:40;100346.91;;;19.67;33.39
56074;BME280;41950;55.840;37.442;2023-05-14T11:45:09;100351.06;;;19.73;33.46
56074;BME280;41950;55.840;37.442;2023-05-14T11:47:36;100334.09;;;19.60;32.73
56074;BME280;41950;55.840;37.442;2023-05-14T11:50:02;100319.66;;;19.48;31.76
56074;BME280;41950;55.840;37.442;2023-05-14T11:52:30;100347.63;;;19.51;31.66
56074;BME280;41950;55.840;37.442;2023-05-14T11:54:56;100330.81;;;19.12;32.89
56074;BME280;41950;55.840;37.442;2023-05-14T11:57:22;100338.28;;;19.23;33.88
56074;BME280;41950;55.840;37.442;2023-05-14T11:59:50;100317.75;;;19.31;34.30
56074;BME280;41950;55.840;37.442;2023-05-14T12:02:20;100326.88;;;19.43;32.39
56074;BME280;41950;55.840;37.442;2023-05-14T12:04:50;100299.44;;;19.08;31.92
56074;BME280;41950;55.840;37.442;2023-05-14T12:07:18;100333.25;;;18.97;31.98
56074;BME280;41950;55.840;37.442;2023-05-14T12:09:46;100330.56;;;18.76;33.18
56074;BME280;41950;55.840;37.442;2023-05-14T12:12:17;100327.22;;;18.73;33.05
56074;BME280;41950;55.840;37.442;2023-05-14T12:14:43;100353.56;;;18.93;33.20
56074;BME280;41950;55.840;37.442;2023-05-14T12:17:18;100328.31;;;18.67;33.45
56074;BME280;41950;55.840;37.442;2023-05-14T12:19:44;100349.16;;;18.72;33.34
56074;BME280;41950;55.840;37.442;2023-05-14T12:22:13;100334.63;;;18.63;34.65
56074;BME280;41950;55.840;37.442;2023-05-14T12:24:40;100343.19;;;18.68;34.08
56074;BME280;41950;55.840;37.442;2023-05-14T12:27:09;100340.03;;;18.80;34.26
56074;BME280;41950;55.840;37.442;2023-05-14T12:29:36;100281.75;;;18.47;33.48
56074;BME280;41950;55.840;37.442;2023-05-14T12:32:08;100347.91;;;18.59;33.32
56074;BME280;41950;55.840;37.442;2023-05-14T12:34:37;100316.38;;;18.13;34.13
56074;BME280;41950;55.840;37.442;2023-05-14T12:37:04;100341.81;;;18.35;34.50
56074;BME280;41950;55.840;37.442;2023-05-14T12:39:32;100314.81;;;18.31;35.41
56074;BME280;41950;55.840;37.442;2023-05-14T12:41:58;100332.75;;;18.43;35.21
56074;BME280;41950;55.840;37.442;2023-05-14T12:44:24;100327.88;;;18.33;34.88
56074;BME280;41950;55.840;37.442;2023-05-14T12:46:50;100346.19;;;18.36;35.17
56074;BME280;41950;55.840;37.442;2023-05-14T12:49:16;100347.25;;;18.30;35.97
56074;BME280;41950;55.840;37.442;2023-05-14T12:51:41;100355.72;;;18.38;35.60
56074;BME280;41950;55.840;37.442;2023-05-14T12:54:07;100336.75;;;18.07;35.67